Time;durP1;ratioP1;P1;durP2;ratioP2;P2;SDS_P1;SDS_P2;PMS_P1;PMS_P2;Temp;Humidity;BMP_temperature;BMP_pressure;BME280_temperature;BME280_humidity;BME280_pressure;Samples;Min_cycle;Max_cycle;Signal;HPM_P1;HPM_P2
2023/03/15 00:02:07;;;;;;;14.63;2.08;;;2.40;99.90;;;;;;4350758;28;10000176;-73
2023/03/15 00:04:37;;;;;;;7.25;1.83;;;2.40;99.90;;;;;;5046889;28;20021;-73
2023/03/15 00:07:12;;;;;;;9.73;2.13;;;2.40;99.90;;;;;;5049497;28;20452;-73
2023/03/15 00:09:46;;;;;;;9.45;2.25;;;2.30;99.90;;;;;;5044539;28;20389;-73
2023/03/15 00:12:21;;;;;;;7.57;1.95;;;2.30;99.90;;;;;;5047286;28;20104;-73
2023/03/15 00:14:58;;;;;;;6.05;1.80;;;2.30;99.90;;;;;;5039649;28;20091;-73
2023/03/15 00:17:27;;;;;;;8.43;1.80;;;2.30;99.90;;;;;;5042125;28;20061;-73
2023/03/15 00:20:03;;;;;;;10.27;2.35;;;2.30;99.90;;;;;;5040249;28;20021;-73
2023/03/15 00:22:37;;;;;;;7.90;1.77;;;2.20;99.90;;;;;;5045573;28;20429;-73
2023/03/15 00:25:03;;;;;;;10.32;2.55;;;2.20;99.90;;;;;;5043530;28;20041;-73
2023/03/15 00:27:29;;;;;;;8.25;1.40;;;2.20;99.90;;;;;;5038983;28;20072;-73
2023/03/15 00:29:55;;;;;;;10.77;1.88;;;2.10;99.90;;;;;;5044123;28;20452;-73
2023/03/15 00:32:21;;;;;;;8.05;1.70;;;2.10;99.90;;;;;;5047836;28;20057;-73
2023/03/15 00:34:47;;;;;;;10.55;1.73;;;2.00;99.90;;;;;;5045585;28;20039;-73
2023/03/15 00:37:18;;;;;;;8.65;1.65;;;2.00;99.90;;;;;;5043545;28;20033;-73
2023/03/15 00:39:47;;;;;;;8.63;1.80;;;2.00;99.90;;;;;;5042241;28;20029;-73
2023/03/15 00:42:14;;;;;;;20.95;2.08;;;1.90;99.90;;;;;;5048676;28;20119;-73
2023/03/15 00:44:44;;;;;;;11.70;2.17;;;1.90;99.90;;;;;;5035539;28;20033;-73
2023/03/15 00:47:18;;;;;;;11.32;1.98;;;1.80;99.90;;;;;;5043372;28;20021;-72
2023/03/15 00:49:46;;;;;;;13.52;2.35;;;1.80;99.90;;;;;;5044837;28;20032;-72
2023/03/15 00:52:17;;;;;;;14.70;2.33;;;1.70;99.90;;;;;;4688525;28;10000100;-72
2023/03/15 00:54:59;;;;;;;10.57;1.80;;;1.70;99.90;;;;;;5048943;28;20044;-72
2023/03/15 00:57:34;;;;;;;8.27;1.67;;;1.70;99.90;;;;;;5045849;28;20132;-72
2023/03/15 01:00:08;;;;;;;10.98;1.92;;;1.60;99.90;;;;;;5042671;28;20556;-72
2023/03/15 01:02:39;;;;;;;6.53;1.65;;;1.70;99.90;;;;;;5041338;28;20032;-72
2023/03/15 01:05:17;;;;;;;10.57;1.90;;;1.70;99.90;;;;;;5047463;28;20029;-72
2023/03/15 01:07:52;;;;;;;13.35;2.63;;;1.70;99.90;;;;;;5038547;28;20041;-72
2023/03/15 01:10:18;;;;;;;12.82;2.00;;;1.60;99.90;;;;;;5048430;28;20025;-72
2023/03/15 01:12:45;;;;;;;15.43;2.55;;;1.60;99.90;;;;;;5043384;28;20021;-72
2023/03/15 01:15:20;;;;;;;9.27;2.15;;;1.50;99.90;;;;;;5043006;28;20117;-72
2023/03/15 01:17:52;;;;;;;9.75;1.92;;;1.50;99.90;;;;;;5041481;28;20022;-72
2023/03/15 01:20:24;;;;;;;7.47;1.98;;;1.50;99.90;;;;;;5040915;28;20090;-72
2023/03/15 01:23:00;;;;;;;8.90;2.00;;;1.50;99.90;;;;;;5043567;28;20440;-72
2023/03/15 01:25:36;;;;;;;6.97;1.85;;;1.50;99.90;;;;;;5044063;28;20037;-72
2023/03/15 01:28:09;;;;;;;9.25;1.80;;;1.50;99.90;;;;;;5039741;28;20032;-72
2023/03/15 01:30:49;;;;;;;9.85;1.88;;;1.50;99.90;;;;;;5047504;28;20025;-72
2023/03/15 01:33:28;;;;;;;10.68;1.75;;;1.50;99.90;;;;;;5046182;28;20037;-72
2023/03/15 01:36:10;;;;;;;14.73;2.33;;;1.50;99.90;;;;;;5031302;28;20124;-72
2023/03/15 01:38:54;;;;;;;8.90;1.83;;;1.50;99.90;;;;;;5042561;28;20021;-72
2023/03/15 01:41:26;;;;;;;12.95;1.90;;;1.50;99.90;;;;;;5043531;28;20068;-72
2023/03/15 01:43:53;;;;;;;12.57;2.33;;;1.50;99.90;;;;;;5045690;28;20493;-72
2023/03/15 01:46:25;;;;;;;8.98;2.00;;;1.50;99.90;;;;;;5044145;28;20029;-72
2023/03/15 01:49:08;;;;;;;8.70;2.10;;;1.50;99.90;;;;;;5046265;28;20116;-72
2023/03/15 01:52:02;;;;;;;7.50;1.83;;;1.60;99.90;;;;;;5041831;28;20105;-72
2023/03/15 01:54:44;;;;;;;14.40;2.10;;;1.60;99.90;;;;;;5041424;28;20615;-72
2023/03/15 01:57:35;;;;;;;9.80;2.38;;;1.50;99.90;;;;;;5040565;28;20026;-72
2023/03/15 02:00:14;;;;;;;10.80;2.60;;;1.40;99.90;;;;;;5046113;28;20044;-72
2023/03/15 02:02:52;;;;;;;15.65;2.25;;;1.40;99.90;;;;;;5044564;28;20040;-72
2023/03/15 02:05:23;;;;;;;16.35;3.20;;;1.40;99.90;;;;;;5051941;28;20025;-72
2023/03/15 02:07:53;;;;;;;14.48;2.25;;;1.40;99.90;;;;;;5048641;28;20385;-72
2023/03/15 02:10:32;;;;;;;17.35;2.58;;;1.30;99.90;;;;;;5037430;28;20021;-72
2023/03/15 02:12:58;;;;;;;14.75;3.03;;;1.40;99.90;;;;;;5038779;28;20047;-72
2023/03/15 02:15:24;;;;;;;10.75;2.35;;;1.40;99.90;;;;;;5050726;28;20404;-72
2023/03/15 02:17:50;;;;;;;10.88;1.92;;;1.50;99.90;;;;;;5048811;28;20040;-72
2023/03/15 02:20:31;;;;;;;14.07;2.40;;;1.50;99.90;;;;;;5051094;28;20067;-72
2023/03/15 02:23:10;;;;;;;14.48;2.33;;;1.60;99.90;;;;;;5049297;28;20528;-72
2023/03/15 02:26:11;;;;;;;10.43;2.25;;;1.60;99.90;;;;;;5048104;28;20036;-72
2023/03/15 02:28:38;;;;;;;12.45;2.58;;;1.60;99.90;;;;;;5044865;28;20489;-72
2023/03/15 02:31:04;;;;;;;16.50;2.13;;;1.60;99.90;;;;;;5050412;28;20021;-72
2023/03/15 02:33:44;;;;;;;15.63;2.38;;;1.60;99.90;;;;;;5050075;28;20029;-72
2023/03/15 02:36:19;;;;;;;7.60;1.90;;;1.60;99.90;;;;;;5044682;28;20039;-72
2023/03/15 02:38:52;;;;;;;9.65;2.20;;;1.60;99.90;;;;;;5041322;28;20045;-72
2023/03/15 02:41:38;;;;;;;13.20;1.95;;;1.50;99.90;;;;;;4344476;28;10000812;-72
2023/03/15 02:44:19;;;;;;;16.48;2.15;;;1.50;99.90;;;;;;5049535;28;20037;-72
2023/03/15 02:46:56;;;;;;;11.55;1.75;;;1.50;99.90;;;;;;5047017;28;20083;-72
2023/03/15 02:49:32;;;;;;;10.68;1.88;;;1.60;99.90;;;;;;5049355;28;20033;-72
2023/03/15 02:52:06;;;;;;;14.00;1.88;;;1.60;99.90;;;;;;5050024;28;20040;-71
2023/03/15 02:54:42;;;;;;;12.40;2.03;;;1.70;99.90;;;;;;5043157;28;20052;-72
2023/03/15 02:57:19;;;;;;;16.48;2.28;;;1.60;99.90;;;;;;5043884;28;20068;-72
2023/03/15 02:59:54;;;;;;;11.05;2.30;;;1.70;99.90;;;;;;5043385;28;20562;-72
2023/03/15 03:02:28;;;;;;;12.13;2.00;;;1.70;99.90;;;;;;5046003;28;20082;-72
2023/03/15 03:05:02;;;;;;;11.27;2.03;;;1.70;99.90;;;;;;5049276;28;20048;-72
2023/03/15 03:07:31;;;;;;;13.13;2.35;;;1.70;99.90;;;;;;5042291;28;20025;-72
2023/03/15 03:10:04;;;;;;;13.82;1.90;;;1.70;99.90;;;;;;5047830;28;20040;-72
2023/03/15 03:12:39;;;;;;;8.25;2.00;;;1.70;99.90;;;;;;5046681;28;20033;-72
2023/03/15 03:15:15;;;;;;;12.95;2.17;;;1.70;99.90;;;;;;5049936;28;20037;-72
2023/03/15 03:17:45;;;;;;;14.77;2.08;;;1.70;99.90;;;;;;5044388;28;20103;-72
2023/03/15 03:20:19;;;;;;;9.25;2.28;;;1.60;99.90;;;;;;5042048;28;20037;-72
2023/03/15 03:22:54;;;;;;;8.30;2.40;;;1.60;99.90;;;;;;5046483;28;20051;-72
2023/03/15 03:25:26;;;;;;;14.45;2.15;;;1.60;99.90;;;;;;5037398;28;20548;-72
2023/03/15 03:28:03;;;;;;;8.32;1.80;;;1.50;99.90;;;;;;5032702;28;20038;-72
2023/03/15 03:30:34;;;;;;;12.07;2.50;;;1.50;99.90;;;;;;5048042;28;20071;-72
2023/03/15 03:33:10;;;;;;;13.23;2.20;;;1.40;99.90;;;;;;5047339;28;20033;-72
2023/03/15 03:35:39;;;;;;;11.43;2.38;;;1.40;99.90;;;;;;5039718;28;20045;-72
2023/03/15 03:38:15;;;;;;;9.52;2.10;;;1.40;99.90;;;;;;5043025;28;20489;-72
2023/03/15 03:40:44;;;;;;;8.80;2.60;;;1.40;99.90;;;;;;5050183;28;20041;-72
2023/03/15 03:43:21;;;;;;;18.35;2.15;;;1.40;99.90;;;;;;5049425;28;20032;-72
2023/03/15 03:45:49;;;;;;;16.60;2.38;;;1.40;99.90;;;;;;5040733;28;20036;-72
2023/03/15 03:48:20;;;;;;;15.95;2.47;;;1.40;99.90;;;;;;5050492;28;20060;-72
2023/03/15 03:50:50;;;;;;;11.40;1.92;;;1.40;99.90;;;;;;5044147;28;20022;-72
2023/03/15 03:53:25;;;;;;;12.55;2.60;;;1.40;99.90;;;;;;5030799;28;20088;-72
2023/03/15 03:55:55;;;;;;;5.45;2.20;;;1.50;99.90;;;;;;5030991;28;20022;-72
2023/03/15 03:58:31;;;;;;;11.15;2.10;;;1.50;99.90;;;;;;5042725;28;20086;-72
2023/03/15 04:01:00;;;;;;;16.13;2.60;;;1.50;99.90;;;;;;5039297;28;20061;-72
2023/03/15 04:03:34;;;;;;;15.30;3.38;;;1.60;99.90;;;;;;5031117;28;20105;-72
2023/03/15 04:06:05;;;;;;;13.15;2.58;;;1.60;99.90;;;;;;5043995;28;20037;-72
2023/03/15 04:08:40;;;;;;;16.45;3.00;;;1.60;99.90;;;;;;5048851;28;20021;-72
2023/03/15 04:11:10;;;;;;;18.67;2.88;;;1.70;99.90;;;;;;5049021;28;20110;-72
2023/03/15 04:13:44;;;;;;;24.40;2.90;;;1.70;99.90;;;;;;5039774;28;20071;-72
2023/03/15 04:16:11;;;;;;;17.05;2.92;;;1.70;99.90;;;;;;5046029;28;20036;-72
2023/03/15 04:18:39;;;;;;;14.48;2.67;;;1.70;99.90;;;;;;5042952;28;20506;-72
2023/03/15 04:21:09;;;;;;;12.65;3.08;;;1.70;99.90;;;;;;5045762;28;20032;-72
2023/03/15 04:23:36;;;;;;;13.82;3.25;;;1.70;99.90;;;;;;5043400;28;20246;-72
2023/03/15 04:26:05;;;;;;;16.33;2.97;;;1.60;99.90;;;;;;5044787;28;20109;-72
2023/03/15 04:28:39;;;;;;;18.73;3.22;;;1.60;99.90;;;;;;5046045;28;20029;-73
2023/03/15 04:31:09;;;;;;;19.13;3.63;;;1.60;99.90;;;;;;5046110;28;20548;-72
2023/03/15 04:33:35;;;;;;;12.90;3.28;;;1.60;99.90;;;;;;5044895;28;20029;-72
2023/03/15 04:36:01;;;;;;;19.08;3.15;;;1.60;99.90;;;;;;5046008;28;20147;-71
2023/03/15 04:38:37;;;;;;;16.40;2.70;;;1.60;99.90;;;;;;5033203;28;20053;-71
2023/03/15 04:41:09;;;;;;;12.63;3.17;;;1.60;99.90;;;;;;5045732;28;20041;-71
2023/03/15 04:43:39;;;;;;;10.88;2.65;;;1.60;99.90;;;;;;5043735;28;20032;-71
2023/03/15 04:46:06;;;;;;;17.35;3.15;;;1.60;99.90;;;;;;5046564;28;20401;-72
2023/03/15 04:48:40;;;;;;;18.00;3.03;;;1.60;99.90;;;;;;5048674;28;20535;-72
2023/03/15 04:51:08;;;;;;;10.57;2.85;;;1.60;99.90;;;;;;5045534;28;20039;-72
2023/03/15 04:53:41;;;;;;;18.05;3.88;;;1.60;99.90;;;;;;5032863;28;20040;-72
2023/03/15 04:56:09;;;;;;;10.68;3.40;;;1.60;99.90;;;;;;5046593;28;20040;-72
2023/03/15 04:58:36;;;;;;;20.15;4.18;;;1.70;99.90;;;;;;5038026;28;20044;-72
2023/03/15 05:01:04;;;;;;;11.98;3.10;;;1.70;99.90;;;;;;5029121;28;20689;-72
2023/03/15 05:03:38;;;;;;;13.32;3.83;;;1.70;99.90;;;;;;5041982;28;20040;-72
2023/03/15 05:06:09;;;;;;;12.75;3.50;;;1.70;99.90;;;;;;5041044;28;20037;-72
2023/03/15 05:08:44;;;;;;;16.52;4.00;;;1.70;99.90;;;;;;5048799;28;20033;-72
2023/03/15 05:11:12;;;;;;;16.25;4.63;;;1.70;99.90;;;;;;5048438;28;20033;-72
2023/03/15 05:13:45;;;;;;;16.95;4.25;;;1.70;99.90;;;;;;5044469;28;20104;-72
2023/03/15 05:16:14;;;;;;;18.77;4.60;;;1.70;99.90;;;;;;5038030;28;20049;-72
2023/03/15 05:18:49;;;;;;;13.85;4.15;;;1.70;99.90;;;;;;5039655;28;20036;-72
2023/03/15 05:21:17;;;;;;;14.68;3.70;;;1.70;99.90;;;;;;5043433;28;20056;-72
2023/03/15 05:23:49;;;;;;;14.63;3.78;;;1.70;99.90;;;;;;5044591;28;20041;-72
2023/03/15 05:26:16;;;;;;;18.95;4.10;;;1.70;99.90;;;;;;5034401;28;20041;-72
2023/03/15 05:28:51;;;;;;;15.57;3.83;;;1.70;99.90;;;;;;5043132;28;20025;-72
2023/03/15 05:31:19;;;;;;;15.98;4.25;;;1.70;99.90;;;;;;5039083;28;20494;-72
2023/03/15 05:33:53;;;;;;;15.27;3.75;;;1.80;99.90;;;;;;5043766;28;20037;-72
2023/03/15 05:36:21;;;;;;;12.45;3.35;;;1.70;99.90;;;;;;5044709;28;20500;-72
2023/03/15 05:38:53;;;;;;;13.98;3.78;;;1.70;99.90;;;;;;5050076;28;20036;-72
2023/03/15 05:41:18;;;;;;;14.85;3.70;;;1.80;99.90;;;;;;5032346;28;20037;-72
2023/03/15 05:43:45;;;;;;;17.52;3.75;;;1.80;99.90;;;;;;5045745;28;20541;-72
2023/03/15 05:46:19;;;;;;;16.92;4.45;;;1.80;99.90;;;;;;5047604;28;20389;-72
2023/03/15 05:48:54;;;;;;;16.83;3.42;;;1.80;99.90;;;;;;5059532;28;20531;-72
2023/03/15 05:51:23;;;;;;;12.02;2.75;;;1.80;99.90;;;;;;5061344;28;20058;-72
2023/03/15 05:54:02;;;;;;;14.70;3.40;;;1.80;99.90;;;;;;5063043;28;20376;-72
2023/03/15 05:56:29;;;;;;;18.02;4.18;;;1.80;99.90;;;;;;5056541;28;20056;-72
2023/03/15 05:59:01;;;;;;;11.85;3.22;;;1.80;99.90;;;;;;5049090;28;20033;-72
2023/03/15 06:01:27;;;;;;;16.58;4.07;;;1.80;99.90;;;;;;5035414;28;20025;-72
2023/03/15 06:03:55;;;;;;;13.88;3.53;;;1.80;99.90;;;;;;5038533;28;20044;-72
2023/03/15 06:06:21;;;;;;;10.73;3.65;;;1.90;99.90;;;;;;5050732;28;20042;-72
2023/03/15 06:08:51;;;;;;;13.38;3.58;;;1.80;99.90;;;;;;5038442;28;20094;-72
2023/03/15 06:11:18;;;;;;;17.25;4.22;;;1.90;99.90;;;;;;5046027;28;20507;-72
2023/03/15 06:13:43;;;;;;;13.77;3.45;;;1.90;99.90;;;;;;5046621;28;20112;-72
2023/03/15 06:16:09;;;;;;;20.77;3.95;;;1.90;99.90;;;;;;5044237;28;20115;-72
2023/03/15 06:18:35;;;;;;;15.70;4.10;;;1.90;99.90;;;;;;5045938;28;20029;-72
2023/03/15 06:21:01;;;;;;;14.05;4.10;;;1.80;99.90;;;;;;5038522;28;21063;-72
2023/03/15 06:23:26;;;;;;;16.63;4.20;;;1.90;99.90;;;;;;5040301;28;20056;-72
2023/03/15 06:25:52;;;;;;;15.32;4.15;;;1.90;99.90;;;;;;5044465;28;20025;-72
2023/03/15 06:28:18;;;;;;;14.43;5.95;;;1.80;99.90;;;;;;5049338;28;20117;-72
2023/03/15 06:30:52;;;;;;;18.92;5.45;;;1.90;99.90;;;;;;5047074;28;20417;-72
2023/03/15 06:33:23;;;;;;;13.70;4.70;;;1.90;99.90;;;;;;5041981;28;20045;-72
2023/03/15 06:35:49;;;;;;;13.98;4.80;;;1.90;99.90;;;;;;5046093;28;20022;-72
2023/03/15 06:38:18;;;;;;;19.40;5.68;;;1.90;99.90;;;;;;5048078;28;20599;-72
2023/03/15 06:40:45;;;;;;;15.45;5.55;;;1.90;99.90;;;;;;5044614;28;20040;-72
2023/03/15 06:43:17;;;;;;;14.10;5.68;;;1.90;99.90;;;;;;5047840;28;20043;-72
2023/03/15 06:45:44;;;;;;;19.08;5.85;;;1.90;99.90;;;;;;5053477;28;20488;-72
2023/03/15 06:48:10;;;;;;;12.15;5.30;;;1.90;99.90;;;;;;5047158;28;20032;-72
2023/03/15 06:50:36;;;;;;;18.48;5.68;;;1.80;99.90;;;;;;5048857;28;20021;-71
2023/03/15 06:53:02;;;;;;;11.88;4.72;;;1.90;99.90;;;;;;5053641;28;20021;-72
2023/03/15 06:55:31;;;;;;;11.00;5.10;;;1.90;99.90;;;;;;5048438;28;20022;-72
2023/03/15 06:58:02;;;;;;;13.43;4.93;;;1.90;99.90;;;;;;5044286;28;20108;-72
2023/03/15 07:00:27;;;;;;;15.93;5.35;;;1.90;99.90;;;;;;5052488;28;20072;-72
2023/03/15 07:02:53;;;;;;;13.95;5.10;;;2.00;99.90;;;;;;5049817;28;20059;-71
2023/03/15 07:05:23;;;;;;;12.57;5.10;;;2.00;99.90;;;;;;5047190;28;20040;-72
2023/03/15 07:07:53;;;;;;;14.68;5.28;;;2.00;99.90;;;;;;5034650;28;20032;-72
2023/03/15 07:10:20;;;;;;;14.90;5.18;;;2.10;99.90;;;;;;5037135;28;20501;-72
2023/03/15 07:12:48;;;;;;;16.15;5.68;;;2.10;99.90;;;;;;5041054;28;20113;-72
2023/03/15 07:15:17;;;;;;;13.52;4.45;;;2.20;99.90;;;;;;5043254;28;20086;-72
2023/03/15 07:17:43;;;;;;;16.25;6.63;;;2.30;99.90;;;;;;5030775;28;20083;-71
2023/03/15 07:20:11;;;;;;;13.35;5.28;;;2.40;99.90;;;;;;5050961;28;20030;-72
2023/03/15 07:22:39;;;;;;;14.02;5.30;;;2.40;99.90;;;;;;5046429;28;20067;-72
2023/03/15 07:25:06;;;;;;;12.98;5.20;;;2.50;99.90;;;;;;5055045;28;20043;-72
2023/03/15 07:27:32;;;;;;;12.90;5.20;;;2.60;99.90;;;;;;5046778;28;20085;-72
2023/03/15 07:29:59;;;;;;;10.02;4.80;;;2.60;99.90;;;;;;5044391;28;20029;-72
2023/03/15 07:32:29;;;;;;;10.93;4.53;;;2.60;99.90;;;;;;5036769;28;20034;-72
2023/03/15 07:34:59;;;;;;;10.00;5.20;;;2.60;99.90;;;;;;5049244;28;20033;-72
2023/03/15 07:37:28;;;;;;;11.15;5.20;;;2.60;99.90;;;;;;5049743;28;20029;-72
2023/03/15 07:39:54;;;;;;;9.05;4.57;;;2.70;99.90;;;;;;5047774;28;20098;-72
2023/03/15 07:42:20;;;;;;;13.05;6.18;;;2.80;99.90;;;;;;5045016;28;20043;-72
2023/03/15 07:44:49;;;;;;;14.93;7.60;;;2.90;99.90;;;;;;5057027;28;20040;-72
2023/03/15 07:47:15;;;;;;;13.80;7.80;;;2.90;99.90;;;;;;5034143;28;20433;-72
2023/03/15 07:49:40;;;;;;;11.05;5.90;;;3.00;99.90;;;;;;5047214;28;20063;-72
2023/03/15 07:52:10;;;;;;;10.40;5.00;;;3.00;99.90;;;;;;5047155;28;20037;-72
2023/03/15 07:54:36;;;;;;;11.38;5.35;;;3.10;99.90;;;;;;5048258;28;20076;-72
2023/03/15 07:57:04;;;;;;;10.50;5.15;;;3.20;99.90;;;;;;5041869;28;20033;-72
2023/03/15 07:59:32;;;;;;;15.32;5.50;;;3.20;99.90;;;;;;5043689;28;20145;-72
2023/03/15 08:02:01;;;;;;;13.85;5.80;;;3.30;99.90;;;;;;5043444;28;20040;-72
2023/03/15 08:04:29;;;;;;;9.32;5.22;;;3.40;99.90;;;;;;5043699;28;20087;-73
2023/03/15 08:06:56;;;;;;;10.70;5.63;;;3.40;99.90;;;;;;5040109;28;20032;-72
2023/03/15 08:09:22;;;;;;;14.57;6.47;;;3.50;99.90;;;;;;5053347;28;20029;-74
2023/03/15 08:11:48;;;;;;;8.98;5.05;;;3.50;99.90;;;;;;5044144;28;20102;-72
2023/03/15 08:14:13;;;;;;;10.68;5.72;;;3.50;99.90;;;;;;5056815;28;20474;-72
2023/03/15 08:16:39;;;;;;;10.57;6.25;;;3.50;99.90;;;;;;5047588;28;20035;-72
2023/03/15 08:19:05;;;;;;;9.20;5.40;;;3.50;99.90;;;;;;5047922;28;20474;-72
2023/03/15 08:21:32;;;;;;;9.65;5.63;;;3.50;99.90;;;;;;5048760;28;20087;-72
2023/03/15 08:23:58;;;;;;;10.20;5.00;;;3.50;99.90;;;;;;5045793;28;20049;-74
2023/03/15 08:26:24;;;;;;;8.18;5.25;;;3.50;99.90;;;;;;5038725;28;20036;-73
2023/03/15 08:28:50;;;;;;;8.82;5.45;;;3.60;99.90;;;;;;5039332;28;20021;-73
2023/03/15 08:31:16;;;;;;;9.52;5.15;;;3.80;99.90;;;;;;5044483;28;20082;-73
2023/03/15 08:33:49;;;;;;;8.18;5.47;;;4.10;99.90;;;;;;5046379;28;20032;-74
2023/03/15 08:36:23;;;;;;;;;;;4.20;99.90;;;;;;5032079;28;20037;-74
2023/03/15 08:38:53;;;;;;;8.88;5.00;;;4.40;99.90;;;;;;5048259;28;19913;-74
2023/03/15 08:41:27;;;;;;;7.75;4.90;;;4.70;99.90;;;;;;5042727;28;20037;-74
2023/03/15 08:44:01;;;;;;;9.65;5.63;;;4.80;99.90;;;;;;5050935;28;20024;-74
2023/03/15 08:46:35;;;;;;;8.05;4.63;;;5.00;99.90;;;;;;5053944;28;20053;-74
2023/03/15 08:49:05;;;;;;;10.07;5.43;;;5.10;99.90;;;;;;5034661;28;20037;-74
2023/03/15 08:51:39;;;;;;;5.55;4.10;;;5.20;99.90;;;;;;5045566;28;20070;-74
2023/03/15 08:54:08;;;;;;;8.85;4.13;;;;;;;;;;5056590;28;20059;-74
2023/03/15 08:56:42;;;;;;;6.15;4.00;;;5.10;99.90;;;;;;5045673;28;20020;-74
2023/03/15 08:59:16;;;;;;;8.18;4.22;;;5.00;99.90;;;;;;5054863;28;20099;-74
2023/03/15 09:01:51;;;;;;;4.05;2.60;;;5.00;99.90;;;;;;5034010;28;20494;-74
2023/03/15 09:04:26;;;;;;;7.70;2.10;;;5.10;99.90;;;;;;5047079;28;20112;-74
2023/03/15 09:06:59;;;;;;;4.82;1.92;;;5.20;99.90;;;;;;5044839;28;20037;-74
2023/03/15 09:09:26;;;;;;;7.78;2.15;;;;;;;;;;5055093;28;20060;-74
2023/03/15 09:11:56;;;;;;;7.40;1.98;;;;;;;;;;5037056;28;20036;-74
2023/03/15 09:14:23;;;;;;;4.45;1.90;;;;;;;;;;5042056;28;20120;-73
2023/03/15 09:16:49;;;;;;;3.85;1.40;;;;;;;;;;5044900;28;20036;-73
2023/03/15 09:19:18;;;;;;;4.03;2.20;;;;;;;;;;5049815;28;20017;-74
2023/03/15 09:21:46;;;;;;;9.75;2.10;;;;;;;;;;5043830;28;20051;-73
2023/03/15 09:24:13;;;;;;;6.22;2.08;;;;;;;;;;5046190;28;20119;-74
2023/03/15 09:26:43;;;;;;;4.75;2.05;;;;;;;;;;5049556;28;20029;-73
2023/03/15 09:29:14;;;;;;;6.40;1.77;;;;;;;;;;5047215;28;20091;-73
2023/03/15 09:31:41;;;;;;;5.60;1.88;;;;;;;;;;5036030;28;20046;-73
2023/03/15 09:34:15;;;;;;;6.32;2.45;;;5.40;99.90;;;;;;5033599;28;20033;-73
2023/03/15 09:36:52;;;;;;;4.03;1.80;;;5.50;99.90;;;;;;5050717;28;20044;-73
2023/03/15 09:39:25;;;;;;;6.95;2.00;;;5.30;99.90;;;;;;5035920;28;20033;-73
2023/03/15 09:41:55;;;;;;;;;;;5.60;99.90;;;;;;5040378;28;20540;-73
2023/03/15 09:44:40;;;;;;;4.22;1.40;;;5.60;99.90;;;;;;5052215;28;20295;-73
2023/03/15 09:47:26;;;;;;;4.13;1.75;;;;;;;;;;5043756;28;20600;-73
2023/03/15 09:50:33;;;;;;;4.22;1.85;;;5.20;99.90;;;;;;5033682;28;20017;-70
2023/03/15 09:53:10;;;;;;;6.25;2.28;;;5.30;99.90;;;;;;5032387;28;20037;-70
2023/03/15 09:55:38;;;;;;;4.78;2.08;;;5.20;99.90;;;;;;5034517;28;20489;-70
2023/03/15 09:58:18;;;;;;;7.45;2.17;;;5.30;99.90;;;;;;5038050;28;20061;-70
2023/03/15 10:00:48;;;;;;;4.72;1.80;;;5.30;99.90;;;;;;5028539;28;20057;-70
2023/03/15 10:03:23;;;;;;;7.63;1.73;;;5.30;99.90;;;;;;5029982;28;20032;-70
2023/03/15 10:05:58;;;;;;;3.50;1.55;;;5.50;99.90;;;;;;5041869;28;20043;-70
2023/03/15 10:08:28;;;;;;;8.10;1.77;;;5.80;99.90;;;;;;5041821;28;20044;-70
2023/03/15 10:11:22;;;;;;;6.00;2.10;;;6.10;99.90;;;;;;5038417;28;20025;-70
2023/03/15 10:14:00;;;;;;;6.28;2.30;;;;;;;;;;5041969;28;20029;-70
2023/03/15 10:16:41;;;;;;;6.20;2.22;;;6.40;99.90;;;;;;5037789;28;20033;-70
2023/03/15 10:19:35;;;;;;;6.32;2.65;;;6.60;99.90;;;;;;5037828;28;20044;-69
2023/03/15 10:22:06;;;;;;;6.60;2.20;;;;;;;;;;5047156;28;20028;-70
2023/03/15 10:24:53;;;;;;;5.00;2.60;;;6.50;99.90;;;;;;5050029;28;20037;-70
2023/03/15 10:27:47;;;;;;;7.25;3.20;;;6.50;99.90;;;;;;5045091;28;20486;-70
2023/03/15 10:30:29;;;;;;;4.57;2.72;;;6.20;99.90;;;;;;5048222;28;20082;-69
2023/03/15 10:33:20;;;;;;;3.83;1.83;;;6.10;99.90;;;;;;5045287;28;20037;-69
2023/03/15 10:35:53;;;;;;;7.70;3.08;;;5.90;99.90;;;;;;5043567;28;20036;-71
2023/03/15 10:38:23;;;;;;;7.05;2.80;;;;;;;;;;5039537;28;20033;-69
2023/03/15 10:41:05;;;;;;;8.82;2.70;;;6.30;99.90;;;;;;5039824;28;20120;-69
2023/03/15 10:43:38;;;;;;;5.50;2.17;;;6.70;99.90;;;;;;5048012;28;20127;-70
2023/03/15 10:46:12;;;;;;;6.88;2.28;;;;;;;;;;5037360;28;20028;-69
2023/03/15 10:48:56;;;;;;;7.07;2.28;;;7.40;99.90;;;;;;5037893;28;20316;-70
2023/03/15 10:51:28;;;;;;;4.43;1.98;;;7.60;99.90;;;;;;5059145;28;20454;-70
2023/03/15 10:54:17;;;;;;;6.38;1.88;;;7.40;99.90;;;;;;5039861;28;20378;-70
2023/03/15 10:56:51;;;;;;;5.45;1.98;;;7.20;99.90;;;;;;5037413;28;20021;-69
2023/03/15 10:59:23;;;;;;;7.20;1.90;;;7.20;99.90;;;;;;4694466;28;10000308;-69
2023/03/15 11:02:07;;;;;;;5.18;1.90;;;7.40;99.90;;;;;;5053542;28;20040;-70
2023/03/15 11:04:49;;;;;;;5.55;1.60;;;7.60;99.90;;;;;;5050333;28;20048;-69
2023/03/15 11:07:17;;;;;;;6.38;2.05;;;7.50;99.90;;;;;;5043400;28;20485;-70
2023/03/15 11:09:57;;;;;;;6.00;1.80;;;7.30;99.90;;;;;;5041358;28;20037;-70
2023/03/15 11:12:34;;;;;;;5.13;1.45;;;7.50;99.90;;;;;;5040340;28;20650;-69
2023/03/15 11:15:12;;;;;;;6.80;1.50;;;7.60;99.90;;;;;;5035247;28;20041;-70
2023/03/15 11:17:48;;;;;;;8.05;1.70;;;7.80;99.90;;;;;;5033665;28;20028;-70
2023/03/15 11:20:29;;;;;;;6.35;1.52;;;7.60;99.90;;;;;;5034271;28;20456;-70
2023/03/15 11:22:58;;;;;;;6.55;2.15;;;7.40;99.90;;;;;;5038547;28;20068;-69
2023/03/15 11:25:32;;;;;;;11.02;1.65;;;7.10;99.90;;;;;;5037596;28;20556;-69
2023/03/15 11:27:58;;;;;;;6.38;1.20;;;6.90;99.90;;;;;;5038671;28;20029;-69
2023/03/15 11:30:30;;;;;;;6.28;1.73;;;6.70;99.90;;;;;;5038206;28;20033;-69
2023/03/15 11:33:05;;;;;;;7.90;1.60;;;6.60;99.90;;;;;;5042534;28;20115;-69
2023/03/15 11:35:47;;;;;;;7.95;1.33;;;6.90;99.90;;;;;;5047014;28;20036;-69
2023/03/15 11:38:23;;;;;;;6.68;1.38;;;7.20;99.90;;;;;;5042654;28;20067;-70
2023/03/15 11:40:58;;;;;;;6.97;1.83;;;7.50;99.90;;;;;;5048113;28;20115;-70
2023/03/15 11:43:47;;;;;;;7.32;1.80;;;7.80;99.90;;;;;;5044269;28;20044;-70
2023/03/15 11:46:31;;;;;;;4.10;1.40;;;8.10;99.90;;;;;;5049997;28;20064;-70
2023/03/15 11:49:11;;;;;;;11.02;1.40;;;8.10;99.90;;;;;;5039822;28;20029;-70
2023/03/15 11:51:38;;;;;;;5.78;1.40;;;8.00;98.20;;;;;;5035501;28;20129;-70
2023/03/15 11:54:13;;;;;;;7.05;0.95;;;7.80;99.90;;;;;;5036863;28;20475;-70
2023/03/15 11:56:56;;;;;;;3.88;1.08;;;7.80;99.90;;;;;;5038648;28;20461;-69
2023/03/15 11:59:36;;;;;;;7.18;1.42;;;7.70;99.90;;;;;;5044028;28;20029;-69
2023/03/15 12:02:09;;;;;;;7.13;1.23;;;7.50;99.90;;;;;;4342220;28;10000825;-69
2023/03/15 12:04:42;;;;;;;4.50;0.98;;;7.40;99.90;;;;;;5038462;28;20017;-69
2023/03/15 12:07:18;;;;;;;7.15;1.20;;;7.30;99.90;;;;;;5037477;28;20045;-70
2023/03/15 12:10:19;;;;;;;6.15;1.90;;;7.30;99.90;;;;;;5035520;28;20028;-70
2023/03/15 12:13:05;;;;;;;6.30;1.35;;;7.20;99.90;;;;;;5034096;28;20082;-69
2023/03/15 12:15:39;;;;;;;5.07;1.33;;;7.20;99.20;;;;;;5042710;28;20029;-70
2023/03/15 12:18:15;;;;;;;8.32;1.85;;;7.50;96.30;;;;;;5042318;28;20048;-70
2023/03/15 12:21:05;;;;;;;5.07;1.45;;;7.70;99.90;;;;;;5035685;28;20029;-69
2023/03/15 12:23:45;;;;;;;4.95;1.80;;;8.00;99.90;;;;;;5040506;28;20057;-69
2023/03/15 12:26:34;;;;;;;6.63;1.20;;;8.50;99.90;;;;;;5043992;28;20078;-70
2023/03/15 12:29:07;;;;;;;8.73;1.70;;;8.80;99.90;;;;;;5046891;28;20027;-69
2023/03/15 12:31:35;;;;;;;;;;;;;;;;;;5038493;28;20022;-69
2023/03/15 12:34:04;;;;;;;8.75;1.85;;;8.50;99.90;;;;;;5039504;28;19970;-70
2023/03/15 12:36:46;;;;;;;9.43;5.25;;;8.30;99.90;;;;;;5042441;28;20029;-69
2023/03/15 12:39:16;;;;;;;9.85;3.15;;;8.20;99.90;;;;;;5048996;28;20448;-70
2023/03/15 12:41:47;;;;;;;6.78;2.47;;;8.50;99.90;;;;;;5040915;28;20409;-69
2023/03/15 12:44:25;;;;;;;5.65;1.58;;;;;;;;;;5041857;28;20117;-69
2023/03/15 12:47:03;;;;;;;5.32;1.80;;;8.40;99.90;;;;;;5045148;28;20683;-69
2023/03/15 12:49:37;;;;;;;5.93;1.45;;;7.80;99.90;;;;;;5043879;28;20029;-69
2023/03/15 12:52:29;;;;;;;4.70;1.13;;;7.20;99.90;;;;;;5041875;28;20028;-69
2023/03/15 12:55:11;;;;;;;5.32;1.85;;;6.80;99.90;;;;;;5040234;28;20029;-69
2023/03/15 12:57:55;;;;;;;3.28;1.20;;;6.90;99.90;;;;;;5046039;28;20029;-69
2023/03/15 13:00:26;;;;;;;4.50;1.20;;;7.20;99.90;;;;;;5044520;28;20688;-69
2023/03/15 13:02:58;;;;;;;2.58;1.10;;;7.50;99.90;;;;;;5037637;28;20800;-70
2023/03/15 13:05:30;;;;;;;3.75;1.00;;;;;;;;;;5037879;28;20078;-69
2023/03/15 13:07:58;;;;;;;6.43;1.23;;;;;;;;;;5055124;28;20114;-69
2023/03/15 13:10:41;;;;;;;7.38;1.15;;;;;;;;;;5047841;28;20031;-68
2023/03/15 13:13:17;;;;;;;5.40;1.02;;;;;;;;;;5042939;28;20032;-68
2023/03/15 13:15:48;;;;;;;4.97;1.42;;;;;;;;;;5041334;28;20053;-68
2023/03/15 13:18:21;;;;;;;4.22;1.45;;;;;;;;;;5033190;28;20036;-68
2023/03/15 13:21:09;;;;;;;5.43;1.75;;;;;;;;;;5036214;28;20025;-68
2023/03/15 13:23:35;;;;;;;6.75;1.88;;;;;;;;;;5041952;28;20812;-69
2023/03/15 13:26:17;;;;;;;8.90;3.25;;;;;;;;;;5044088;28;20028;-69
2023/03/15 13:28:48;;;;;;;5.68;1.60;;;;;;;;;;5042819;28;20512;-69
2023/03/15 13:31:21;;;;;;;7.60;2.55;;;;;;;;;;5042438;28;20029;-69